Time,TemperatureF,DewpointF,PressureIn,WindDirection,WindDirectionDegrees,WindSpeedMPH,WindSpeedGustMPH,Humidity,HourlyPrecipIn,Conditions,Clouds,dailyrainin,SoftwareType,DateUTC
2013-06-12 00:00:00,71.0,61.9,29.35,WSW,247,4.0,16.0,73,0.00,,,0.00,Weather View 32 v70,2013-06-12 04:00:00,
2013-06-12 00:05:00,71.0,61.9,29.35,WSW,247,0.0,16.0,73,0.00,,,0.00,Weather View 32 v70,2013-06-12 04:05:00,
2013-06-12 00:10:00,71.0,61.9,29.35,WSW,247,4.0,16.0,73,0.00,,,0.00,Weather View 32 v70,2013-06-12 04:10:00,
2013-06-12 00:12:00,71.0,61.9,29.35,WSW,247,4.0,16.0,73,0.00,,,0.00,Weather View 32 v70,2013-06-12 04:12:00,
2013-06-12 00:15:00,71.0,61.9,29.35,SW,225,1.0,16.0,73,0.00,,,0.00,Weather View 32 v70,2013-06-12 04:15:00,
2013-06-12 00:20:00,71.0,61.9,29.35,SW,225,7.0,16.0,73,0.00,,,0.00,Weather View 32 v70,2013-06-12 04:20:00,
2013-06-12 00:25:00,71.0,62.3,29.36,West,270,6.0,13.0,74,0.00,,,0.00,Weather View 32 v70,2013-06-12 04:25:00,
2013-06-12 00:35:00,71.0,62.6,29.36,East,90,1.0,13.0,75,0.00,,,0.00,Weather View 32 v70,2013-06-12 04:35:00,
2013-06-12 00:45:00,70.0,61.7,29.35,WSW,247,9.0,13.0,75,0.00,,,0.00,Weather View 32 v70,2013-06-12 04:45:00,
2013-06-12 00:50:00,70.0,61.7,29.35,SW,225,8.0,13.0,75,0.00,,,0.00,Weather View 32 v70,2013-06-12 04:50:00,
2013-06-12 01:00:00,70.0,62.4,29.35,ENE,67,5.0,13.0,77,0.00,,,0.00,Weather View 32 v70,2013-06-12 05:00:00,
2013-06-12 01:05:00,70.0,62.4,29.35,SW,225,4.0,13.0,77,0.00,,,0.00,Weather View 32 v70,2013-06-12 05:05:00,
2013-06-12 01:13:00,70.0,62.8,29.34,WSW,247,2.0,13.0,78,0.00,,,0.00,Weather View 32 v70,2013-06-12 05:13:00,
2013-06-12 01:20:00,70.0,62.8,29.35,WSW,247,1.0,13.0,78,0.00,,,0.00,Weather View 32 v70,2013-06-12 05:20:00,
2013-06-12 01:30:00,70.0,62.8,29.35,South,180,1.0,13.0,78,0.00,,,0.00,Weather View 32 v70,2013-06-12 05:30:00,
2013-06-12 01:35:00,70.0,62.8,29.35,SSW,202,0.0,13.0,78,0.00,,,0.00,Weather View 32 v70,2013-06-12 05:35:00,
2013-06-12 01:40:00,70.0,62.8,29.35,West,270,7.0,13.0,78,0.00,,,0.00,Weather View 32 v70,2013-06-12 05:40:00,
2013-06-12 01:50:00,70.0,62.8,29.35,SW,225,9.0,11.0,78,0.00,,,0.00,Weather View 32 v70,2013-06-12 05:50:00,
2013-06-12 01:55:00,70.0,62.1,29.35,WSW,247,6.0,14.0,76,0.00,,,0.00,Weather View 32 v70,2013-06-12 05:55:00,
2013-06-12 02:05:00,70.0,62.1,29.35,SSE,157,4.0,22.0,76,0.00,,,0.00,Weather View 32 v70,2013-06-12 06:05:00,
2013-06-12 02:10:00,70.0,62.8,29.35,South,180,2.0,22.0,78,0.00,,,0.00,Weather View 32 v70,2013-06-12 06:10:00,
2013-06-12 02:20:00,69.0,62.6,29.35,South,180,6.0,22.0,80,0.00,,,0.00,Weather View 32 v70,2013-06-12 06:20:00,
2013-06-12 02:25:00,69.0,62.9,29.35,South,180,3.0,22.0,81,0.00,,,0.00,Weather View 32 v70,2013-06-12 06:25:00,
2013-06-12 02:35:00,68.0,61.9,29.36,West,270,1.0,22.0,81,0.00,,,0.00,Weather View 32 v70,2013-06-12 06:35:00,
2013-06-12 02:40:00,68.0,61.9,29.36,SSW,202,6.0,22.0,81,0.00,,,0.00,Weather View 32 v70,2013-06-12 06:40:00,
2013-06-12 02:50:00,69.0,62.9,29.36,SW,225,10.0,22.0,81,0.00,,,0.00,Weather View 32 v70,2013-06-12 06:50:00,
2013-06-12 02:55:00,69.0,62.9,29.36,SW,225,6.0,22.0,81,0.00,,,0.00,Weather View 32 v70,2013-06-12 06:55:00,
2013-06-12 03:05:00,69.0,62.9,29.36,SW,225,6.0,12.0,81,0.00,,,0.00,Weather View 32 v70,2013-06-12 07:05:00,
2013-06-12 03:10:00,68.0,62.6,29.36,SSE,157,6.0,12.0,83,0.00,,,0.00,Weather View 32 v70,2013-06-12 07:10:00,
2013-06-12 03:20:00,67.0,62.3,29.35,South,180,6.0,12.0,85,0.00,,,0.00,Weather View 32 v70,2013-06-12 07:20:00,
2013-06-12 03:25:00,67.0,62.3,29.36,SW,225,3.0,12.0,85,0.00,,,0.00,Weather View 32 v70,2013-06-12 07:25:00,
2013-06-12 03:35:00,66.0,61.7,29.36,SSW,202,6.0,12.0,86,0.00,,,0.00,Weather View 32 v70,2013-06-12 07:35:00,
2013-06-12 03:40:00,67.0,62.3,29.36,SSE,157,4.0,11.0,85,0.00,,,0.00,Weather View 32 v70,2013-06-12 07:40:00,
2013-06-12 03:50:00,67.0,62.3,29.35,SSE,157,6.0,11.0,85,0.00,,,0.00,Weather View 32 v70,2013-06-12 07:50:00,
2013-06-12 03:55:00,67.0,62.3,29.35,South,180,6.0,10.0,85,0.00,,,0.00,Weather View 32 v70,2013-06-12 07:55:00,
2013-06-12 04:05:00,67.0,62.3,29.36,SSE,157,5.0,10.0,85,0.00,,,0.00,Weather View 32 v70,2013-06-12 08:05:00,
2013-06-12 04:10:00,67.0,62.3,29.35,SSE,157,3.0,10.0,85,0.00,,,0.00,Weather View 32 v70,2013-06-12 08:10:00,
2013-06-12 04:15:00,67.0,62.3,29.35,SSW,202,3.0,10.0,85,0.00,,,0.00,Weather View 32 v70,2013-06-12 08:15:00,
2013-06-12 04:25:00,67.0,62.3,29.35,South,180,3.0,10.0,85,0.00,,,0.00,Weather View 32 v70,2013-06-12 08:25:00,
2013-06-12 04:30:00,67.0,62.3,29.35,SSW,202,4.0,10.0,85,0.00,,,0.00,Weather View 32 v70,2013-06-12 08:30:00,
2013-06-12 04:40:00,67.0,62.3,29.35,SSW,202,5.0,10.0,85,0.00,,,0.00,Weather View 32 v70,2013-06-12 08:40:00,
2013-06-12 04:50:00,67.0,62.3,29.35,South,180,4.0,10.0,85,0.00,,,0.00,Weather View 32 v70,2013-06-12 08:50:00,
2013-06-12 04:55:00,67.0,62.3,29.35,SSW,202,7.0,10.0,85,0.00,,,0.00,Weather View 32 v70,2013-06-12 08:55:00,
2013-06-12 05:05:00,68.0,63.3,29.35,SSW,202,6.0,10.0,85,0.00,,,0.00,Weather View 32 v70,2013-06-12 09:05:00,
2013-06-12 05:10:00,68.0,63.3,29.35,South,180,4.0,10.0,85,0.00,,,0.00,Weather View 32 v70,2013-06-12 09:10:00,
2013-06-12 05:16:00,68.0,63.3,29.35,SSE,157,5.0,10.0,85,0.00,,,0.00,Weather View 32 v70,2013-06-12 09:16:00,
2013-06-12 05:25:00,68.0,63.3,29.34,South,180,5.0,10.0,85,0.00,,,0.00,Weather View 32 v70,2013-06-12 09:25:00,
2013-06-12 05:35:00,69.0,64.3,29.35,SSW,202,7.0,10.0,85,0.00,,,0.00,Weather View 32 v70,2013-06-12 09:35:00,
2013-06-12 05:45:00,69.0,64.3,29.35,WNW,292,1.0,13.0,85,0.00,,,0.00,Weather View 32 v70,2013-06-12 09:45:00,
2013-06-12 05:50:00,69.0,64.3,29.36,NW,315,5.0,13.0,85,0.00,,,0.00,Weather View 32 v70,2013-06-12 09:50:00,
2013-06-12 06:00:00,68.0,63.3,29.36,WSW,247,1.0,13.0,85,0.00,,,0.00,Weather View 32 v70,2013-06-12 10:00:00,
2013-06-12 06:05:00,68.0,63.3,29.36,WSW,247,2.0,13.0,85,0.00,,,0.00,Weather View 32 v70,2013-06-12 10:05:00,
2013-06-12 06:10:00,67.0,62.3,29.36,WSW,247,0.0,13.0,85,0.00,,,0.00,Weather View 32 v70,2013-06-12 10:10:00,
2013-06-12 06:16:00,67.0,62.0,29.36,WSW,247,0.0,13.0,84,0.00,,,0.00,Weather View 32 v70,2013-06-12 10:16:00,
2013-06-12 06:25:00,67.0,59.5,29.36,NW,315,2.0,13.0,77,0.00,,,0.00,Weather View 32 v70,2013-06-12 10:25:00,
2013-06-12 06:35:00,66.0,55.9,29.36,NW,315,0.0,13.0,70,0.00,,,0.00,Weather View 32 v70,2013-06-12 10:35:00,
2013-06-12 06:45:00,66.0,53.4,29.36,NW,315,0.0,9.0,64,0.00,,,0.00,Weather View 32 v70,2013-06-12 10:45:00,
2013-06-12 06:50:00,66.0,55.9,29.36,NW,315,0.0,7.0,70,0.00,,,0.00,Weather View 32 v70,2013-06-12 10:50:00,
2013-06-12 07:00:00,67.0,52.6,29.36,NW,315,0.0,4.0,60,0.00,,,0.00,Weather View 32 v70,2013-06-12 11:00:00,
2013-06-12 07:05:00,66.0,50.3,29.36,NW,315,0.0,4.0,57,0.00,,,0.00,Weather View 32 v70,2013-06-12 11:05:00,
2013-06-12 07:15:00,66.0,50.3,29.36,North,360,1.0,6.0,57,0.00,,,0.00,Weather View 32 v70,2013-06-12 11:15:00,
2013-06-12 07:20:00,66.0,49.3,29.36,SW,225,0.0,7.0,55,0.00,,,0.00,Weather View 32 v70,2013-06-12 11:20:00,
2013-06-12 07:30:00,67.0,52.2,29.37,West,270,1.0,7.0,59,0.01,,,0.01,Weather View 32 v70,2013-06-12 11:30:00,
2013-06-12 07:35:00,67.0,52.2,29.38,WNW,292,0.0,7.0,59,0.10,,,0.10,Weather View 32 v70,2013-06-12 11:35:00,
2013-06-12 07:45:00,66.0,49.3,29.36,WNW,292,0.0,7.0,55,0.10,,,0.10,Weather View 32 v70,2013-06-12 11:45:00,
2013-06-12 07:55:00,67.0,38.4,29.36,South,180,4.0,7.0,35,0.10,,,0.10,Weather View 32 v70,2013-06-12 11:55:00,
2013-06-12 08:00:00,67.0,39.8,29.36,South,180,6.0,7.0,37,0.10,,,0.10,Weather View 32 v70,2013-06-12 12:00:00,
2013-06-12 08:10:00,68.0,48.1,29.37,SSE,157,4.0,7.0,49,0.10,,,0.10,Weather View 32 v70,2013-06-12 12:10:00,
2013-06-12 08:15:00,68.0,52.6,29.37,South,180,5.0,7.0,58,0.10,,,0.10,Weather View 32 v70,2013-06-12 12:15:00,
2013-06-12 08:25:00,70.0,63.5,29.37,South,180,7.0,12.0,80,0.10,,,0.10,Weather View 32 v70,2013-06-12 12:25:00,
2013-06-12 08:30:00,71.0,66.2,29.37,SW,225,7.0,12.0,85,0.09,,,0.10,Weather View 32 v70,2013-06-12 12:30:00,
2013-06-12 08:40:00,72.0,67.2,29.36,SSE,157,5.0,13.0,85,0.00,,,0.10,Weather View 32 v70,2013-06-12 12:40:00,
2013-06-12 08:50:00,72.0,66.9,29.37,SSW,202,10.0,13.0,84,0.00,,,0.10,Weather View 32 v70,2013-06-12 12:50:00,
2013-06-12 08:55:00,72.0,66.5,29.37,SW,225,11.0,13.0,83,0.00,,,0.10,Weather View 32 v70,2013-06-12 12:55:00,
2013-06-12 09:05:00,72.0,66.9,29.38,SSW,202,10.0,13.0,84,0.00,,,0.10,Weather View 32 v70,2013-06-12 13:05:00,
2013-06-12 09:10:00,72.0,66.9,29.38,WSW,247,5.0,13.0,84,0.00,,,0.10,Weather View 32 v70,2013-06-12 13:10:00,
2013-06-12 09:18:00,72.0,66.9,29.38,South,180,6.0,13.0,84,0.00,,,0.10,Weather View 32 v70,2013-06-12 13:18:00,
2013-06-12 09:25:00,72.0,66.9,29.38,WSW,247,6.0,13.0,84,0.00,,,0.10,Weather View 32 v70,2013-06-12 13:25:00,
2013-06-12 09:35:00,72.0,66.9,29.38,WNW,292,4.0,13.0,84,0.00,,,0.10,Weather View 32 v70,2013-06-12 13:35:00,
2013-06-12 09:40:00,72.0,66.9,29.38,West,270,6.0,13.0,84,0.00,,,0.10,Weather View 32 v70,2013-06-12 13:40:00,
2013-06-12 09:50:00,72.0,66.9,29.38,South,180,6.0,12.0,84,0.00,,,0.10,Weather View 32 v70,2013-06-12 13:50:00,
2013-06-12 09:55:00,72.0,66.5,29.38,South,180,6.0,12.0,83,0.00,,,0.10,Weather View 32 v70,2013-06-12 13:55:00,
2013-06-12 10:05:00,73.0,67.5,29.37,SSE,157,6.0,11.0,83,0.00,,,0.10,Weather View 32 v70,2013-06-12 14:05:00,
2013-06-12 10:10:00,73.0,67.2,29.37,WSW,247,10.0,11.0,82,0.00,,,0.10,Weather View 32 v70,2013-06-12 14:10:00,
2013-06-12 10:19:00,73.0,66.4,29.37,SW,225,2.0,11.0,80,0.00,,,0.10,Weather View 32 v70,2013-06-12 14:19:00,
2013-06-12 10:25:00,74.0,66.3,29.38,SW,225,8.0,18.0,77,0.01,,,0.11,Weather View 32 v70,2013-06-12 14:25:00,
2013-06-12 10:35:00,74.0,66.3,29.38,SW,225,9.0,18.0,77,0.01,,,0.11,Weather View 32 v70,2013-06-12 14:35:00,
2013-06-12 10:40:00,75.0,67.6,29.38,SW,225,6.0,18.0,78,0.01,,,0.11,Weather View 32 v70,2013-06-12 14:40:00,
2013-06-12 10:50:00,75.0,66.5,29.38,WSW,247,6.0,18.0,75,0.01,,,0.11,Weather View 32 v70,2013-06-12 14:50:00,
2013-06-12 10:55:00,75.0,66.5,29.38,WNW,292,9.0,18.0,75,0.01,,,0.11,Weather View 32 v70,2013-06-12 14:55:00,
2013-06-12 11:05:00,75.0,66.5,29.38,West,270,5.0,18.0,75,0.01,,,0.11,Weather View 32 v70,2013-06-12 15:05:00,
2013-06-12 11:10:00,76.0,67.5,29.38,West,270,6.0,18.0,75,0.01,,,0.11,Weather View 32 v70,2013-06-12 15:10:00,
2013-06-12 11:20:00,76.0,67.9,29.38,West,270,7.0,18.0,76,0.01,,,0.11,Weather View 32 v70,2013-06-12 15:20:00,
2013-06-12 11:30:00,77.0,68.0,29.39,West,270,6.0,15.0,74,0.00,,,0.11,Weather View 32 v70,2013-06-12 15:30:00,
2013-06-12 11:35:00,76.0,66.3,29.40,West,270,9.0,15.0,72,0.00,,,0.11,Weather View 32 v70,2013-06-12 15:35:00,
2013-06-12 11:40:00,77.0,68.0,29.40,SSW,202,7.0,15.0,74,0.00,,,0.11,Weather View 32 v70,2013-06-12 15:40:00,
2013-06-12 11:50:00,77.0,68.0,29.40,WSW,247,6.0,15.0,74,0.00,,,0.11,Weather View 32 v70,2013-06-12 15:50:00,
2013-06-12 11:55:00,77.0,67.2,29.40,WSW,247,5.0,15.0,72,0.00,,,0.11,Weather View 32 v70,2013-06-12 15:55:00,
2013-06-12 12:05:00,77.0,67.6,29.40,WSW,247,5.0,15.0,73,0.00,,,0.11,Weather View 32 v70,2013-06-12 16:05:00,
2013-06-12 12:10:00,76.0,66.3,29.40,WNW,292,5.0,15.0,72,0.00,,,0.11,Weather View 32 v70,2013-06-12 16:10:00,
2013-06-12 12:20:00,78.0,68.2,29.40,WSW,247,6.0,16.0,72,0.00,,,0.11,Weather View 32 v70,2013-06-12 16:20:00,
2013-06-12 12:25:00,78.0,67.0,29.39,SW,225,6.0,16.0,69,0.00,,,0.11,Weather View 32 v70,2013-06-12 16:25:00,
2013-06-12 12:30:00,78.0,67.0,29.40,NW,315,8.0,16.0,69,0.00,,,0.11,Weather View 32 v70,2013-06-12 16:30:00,
2013-06-12 12:40:00,78.0,66.1,29.40,West,270,6.0,17.0,67,0.00,,,0.11,Weather View 32 v70,2013-06-12 16:40:00,
2013-06-12 12:50:00,79.0,66.6,29.39,WSW,247,6.0,17.0,66,0.00,,,0.11,Weather View 32 v70,2013-06-12 16:50:00,
2013-06-12 12:55:00,79.0,65.3,29.40,West,270,6.0,17.0,63,0.00,,,0.11,Weather View 32 v70,2013-06-12 16:55:00,
2013-06-12 13:00:00,79.0,66.2,29.40,West,270,10.0,17.0,65,0.00,,,0.11,Weather View 32 v70,2013-06-12 17:00:00,
2013-06-12 13:05:00,79.0,65.7,29.40,WSW,247,7.0,17.0,64,0.00,,,0.11,Weather View 32 v70,2013-06-12 17:05:00,
2013-06-12 13:10:00,79.0,65.3,29.40,West,270,10.0,17.0,63,0.00,,,0.11,Weather View 32 v70,2013-06-12 17:10:00,
2013-06-12 13:20:00,78.0,64.8,29.40,West,270,12.0,19.0,64,0.00,,,0.11,Weather View 32 v70,2013-06-12 17:20:00,
2013-06-12 13:25:00,79.0,65.7,29.40,NW,315,11.0,19.0,64,0.00,,,0.11,Weather View 32 v70,2013-06-12 17:25:00,
2013-06-12 13:35:00,79.0,65.3,29.40,NW,315,3.0,19.0,63,0.00,,,0.11,Weather View 32 v70,2013-06-12 17:35:00,
2013-06-12 13:40:00,80.0,66.7,29.40,SW,225,3.0,19.0,64,0.00,,,0.11,Weather View 32 v70,2013-06-12 17:40:00,
2013-06-12 13:50:00,80.0,66.2,29.39,WNW,292,3.0,19.0,63,0.00,,,0.11,Weather View 32 v70,2013-06-12 17:50:00,
2013-06-12 14:00:00,80.0,65.8,29.39,WSW,247,12.0,19.0,62,0.00,,,0.11,Weather View 32 v70,2013-06-12 18:00:00,
2013-06-12 14:05:00,80.0,65.8,29.38,WSW,247,9.0,19.0,62,0.00,,,0.11,Weather View 32 v70,2013-06-12 18:05:00,
2013-06-12 14:10:00,80.0,65.8,29.38,WSW,247,8.0,19.0,62,0.00,,,0.11,Weather View 32 v70,2013-06-12 18:10:00,
2013-06-12 14:20:00,80.0,65.3,29.38,West,270,7.0,17.0,61,0.00,,,0.11,Weather View 32 v70,2013-06-12 18:20:00,
2013-06-12 14:30:00,80.0,64.8,29.38,North,360,0.0,17.0,60,0.00,,,0.11,Weather View 32 v70,2013-06-12 18:30:00,
2013-06-12 14:35:00,81.0,64.8,29.37,West,270,6.0,17.0,58,0.00,,,0.11,Weather View 32 v70,2013-06-12 18:35:00,
2013-06-12 14:45:00,82.0,64.7,29.38,West,270,10.0,17.0,56,0.00,,,0.11,Weather View 32 v70,2013-06-12 18:45:00,
2013-06-12 14:50:00,82.0,65.2,29.38,SW,225,9.0,17.0,57,0.00,,,0.11,Weather View 32 v70,2013-06-12 18:50:00,
2013-06-12 15:00:00,83.0,66.1,29.38,NNW,337,2.0,16.0,57,0.00,,,0.11,Weather View 32 v70,2013-06-12 19:00:00,
2013-06-12 15:05:00,84.0,66.0,29.38,WNW,292,6.0,15.0,55,0.00,,,0.11,Weather View 32 v70,2013-06-12 19:05:00,
2013-06-12 15:10:00,83.0,65.6,29.38,West,270,5.0,15.0,56,0.00,,,0.11,Weather View 32 v70,2013-06-12 19:10:00,
2013-06-12 15:20:00,83.0,65.1,29.38,West,270,10.0,15.0,55,0.00,,,0.11,Weather View 32 v70,2013-06-12 19:20:00,
2013-06-12 15:25:00,83.0,66.1,29.37,SW,225,4.0,15.0,57,0.00,,,0.11,Weather View 32 v70,2013-06-12 19:25:00,
2013-06-12 15:30:00,83.0,65.6,29.37,SW,225,8.0,15.0,56,0.00,,,0.11,Weather View 32 v70,2013-06-12 19:30:00,
2013-06-12 15:40:00,82.0,65.2,29.37,WNW,292,6.0,15.0,57,0.00,,,0.11,Weather View 32 v70,2013-06-12 19:40:00,
2013-06-12 15:50:00,82.0,63.7,29.37,WNW,292,9.0,15.0,54,0.00,,,0.11,Weather View 32 v70,2013-06-12 19:50:00,
2013-06-12 15:55:00,83.0,64.6,29.37,West,270,5.0,15.0,54,0.00,,,0.11,Weather View 32 v70,2013-06-12 19:55:00,
2013-06-12 16:05:00,84.0,64.4,29.37,WSW,247,5.0,15.0,52,0.00,,,0.11,Weather View 32 v70,2013-06-12 20:05:00,
2013-06-12 16:10:00,83.0,64.6,29.36,WSW,247,10.0,15.0,54,0.00,,,0.11,Weather View 32 v70,2013-06-12 20:10:00,
2013-06-12 16:20:00,83.0,65.6,29.36,SSW,202,6.0,15.0,56,0.00,,,0.11,Weather View 32 v70,2013-06-12 20:20:00,
2013-06-12 16:30:00,83.0,65.1,29.36,South,180,2.0,15.0,55,0.00,,,0.11,Weather View 32 v70,2013-06-12 20:30:00,
2013-06-12 16:35:00,83.0,65.6,29.36,West,270,7.0,15.0,56,0.00,,,0.11,Weather View 32 v70,2013-06-12 20:35:00,
2013-06-12 16:45:00,83.0,65.6,29.36,SW,225,0.0,15.0,56,0.00,,,0.11,Weather View 32 v70,2013-06-12 20:45:00,
2013-06-12 16:50:00,83.0,66.1,29.35,WSW,247,6.0,12.0,57,0.00,,,0.11,Weather View 32 v70,2013-06-12 20:50:00,
2013-06-12 17:00:00,83.0,65.6,29.35,WSW,247,5.0,12.0,56,0.00,,,0.11,Weather View 32 v70,2013-06-12 21:00:00,
2013-06-12 17:10:00,84.0,65.5,29.34,NW,315,3.0,12.0,54,0.00,,,0.11,Weather View 32 v70,2013-06-12 21:10:00,
2013-06-12 17:20:00,85.0,66.4,29.34,WNW,292,6.0,11.0,54,0.00,,,0.11,Weather View 32 v70,2013-06-12 21:20:00,
2013-06-12 17:30:00,85.0,65.9,29.34,NW,315,4.0,8.0,53,0.00,,,0.11,Weather View 32 v70,2013-06-12 21:30:00,
2013-06-12 17:35:00,86.0,66.3,29.34,NW,315,3.0,8.0,52,0.00,,,0.11,Weather View 32 v70,2013-06-12 21:35:00,
2013-06-12 17:40:00,86.0,66.3,29.33,SW,225,1.0,7.0,52,0.00,,,0.11,Weather View 32 v70,2013-06-12 21:40:00,
2013-06-12 17:50:00,85.0,65.3,29.32,NNW,337,3.0,7.0,52,0.00,,,0.11,Weather View 32 v70,2013-06-12 21:50:00,
2013-06-12 18:00:00,85.0,65.3,29.33,NNE,22,0.0,7.0,52,0.00,,,0.11,Weather View 32 v70,2013-06-12 22:00:00,
2013-06-12 18:10:00,83.0,68.6,29.34,NNE,22,3.0,7.0,62,0.00,,,0.11,Weather View 32 v70,2013-06-12 22:10:00,
2013-06-12 18:20:00,82.0,69.0,29.34,NE,45,0.0,7.0,65,0.00,,,0.11,Weather View 32 v70,2013-06-12 22:20:00,
2013-06-12 18:30:00,81.0,69.4,29.34,NE,45,0.0,6.0,68,0.00,,,0.11,Weather View 32 v70,2013-06-12 22:30:00,
2013-06-12 18:35:00,81.0,69.4,29.35,NE,45,0.0,6.0,68,0.00,,,0.11,Weather View 32 v70,2013-06-12 22:35:00,
2013-06-12 18:40:00,81.0,69.0,29.36,NE,45,0.0,6.0,67,0.00,,,0.11,Weather View 32 v70,2013-06-12 22:40:00,
2013-06-12 18:50:00,81.0,71.5,29.36,East,90,3.0,6.0,73,0.00,,,0.11,Weather View 32 v70,2013-06-12 22:50:00,
2013-06-12 19:00:00,80.0,69.3,29.37,NE,45,4.0,5.0,70,0.00,,,0.11,Weather View 32 v70,2013-06-12 23:00:00,
2013-06-12 19:10:00,79.0,69.2,29.36,NE,45,4.0,6.0,72,0.00,,,0.11,Weather View 32 v70,2013-06-12 23:10:00,
2013-06-12 19:20:00,79.0,69.2,29.36,NE,45,1.0,6.0,72,0.00,,,0.11,Weather View 32 v70,2013-06-12 23:20:00,
2013-06-12 19:25:00,79.0,69.6,29.36,NE,45,0.0,6.0,73,0.00,,,0.11,Weather View 32 v70,2013-06-12 23:25:00,
2013-06-12 19:35:00,78.0,69.0,29.35,NE,45,0.0,6.0,74,0.00,,,0.11,Weather View 32 v70,2013-06-12 23:35:00,
2013-06-12 19:40:00,78.0,69.0,29.35,NE,45,0.0,6.0,74,0.00,,,0.11,Weather View 32 v70,2013-06-12 23:40:00,
2013-06-12 19:45:00,77.0,69.6,29.36,NE,45,0.0,6.0,78,0.00,,,0.11,Weather View 32 v70,2013-06-12 23:45:00,
2013-06-12 19:55:00,77.0,70.7,29.36,NE,45,3.0,6.0,81,0.00,,,0.11,Weather View 32 v70,2013-06-12 23:55:00,
2013-06-12 20:00:00,76.0,69.7,29.36,NE,45,0.0,6.0,81,0.00,,,0.11,Weather View 32 v70,2013-06-13 00:00:00,
2013-06-12 20:10:00,76.0,69.0,29.36,NE,45,0.0,5.0,79,0.00,,,0.11,Weather View 32 v70,2013-06-13 00:10:00,
2013-06-12 20:20:00,75.0,68.7,29.35,SSW,202,1.0,5.0,81,0.00,,,0.11,Weather View 32 v70,2013-06-13 00:20:00,
2013-06-12 20:26:00,75.0,69.1,29.35,SSW,202,0.0,5.0,82,0.00,,,0.11,Weather View 32 v70,2013-06-13 00:26:00,
2013-06-12 20:35:00,75.0,69.8,29.36,SSW,202,0.0,5.0,84,0.00,,,0.11,Weather View 32 v70,2013-06-13 00:35:00,
2013-06-12 20:40:00,74.0,68.8,29.35,SSW,202,0.0,5.0,84,0.00,,,0.11,Weather View 32 v70,2013-06-13 00:40:00,
2013-06-12 20:50:00,73.0,67.9,29.35,North,360,2.0,5.0,84,0.00,,,0.11,Weather View 32 v70,2013-06-13 00:50:00,
2013-06-12 20:55:00,73.0,68.2,29.35,North,360,0.0,5.0,85,0.00,,,0.11,Weather View 32 v70,2013-06-13 00:55:00,
2013-06-12 21:05:00,73.0,67.9,29.35,North,360,0.0,5.0,84,0.00,,,0.11,Weather View 32 v70,2013-06-13 01:05:00,
2013-06-12 21:10:00,73.0,68.2,29.35,North,360,0.0,5.0,85,0.00,,,0.11,Weather View 32 v70,2013-06-13 01:10:00,
2013-06-12 21:15:00,72.0,67.2,29.35,North,360,0.0,5.0,85,0.00,,,0.11,Weather View 32 v70,2013-06-13 01:15:00,
2013-06-12 21:25:00,72.0,66.9,29.35,North,360,0.0,5.0,84,0.00,,,0.11,Weather View 32 v70,2013-06-13 01:25:00,
2013-06-12 21:35:00,71.0,66.2,29.35,North,360,0.0,5.0,85,0.00,,,0.11,Weather View 32 v70,2013-06-13 01:35:00,
2013-06-12 21:45:00,71.0,65.2,29.36,North,360,1.0,5.0,82,0.00,,,0.11,Weather View 32 v70,2013-06-13 01:45:00,
2013-06-12 21:55:00,71.0,65.6,29.36,North,360,0.0,3.0,83,0.00,,,0.11,Weather View 32 v70,2013-06-13 01:55:00,
2013-06-12 22:05:00,71.0,65.2,29.36,North,360,0.0,3.0,82,0.00,,,0.11,Weather View 32 v70,2013-06-13 02:05:00,
2013-06-12 22:10:00,71.0,65.6,29.36,North,360,0.0,3.0,83,0.00,,,0.11,Weather View 32 v70,2013-06-13 02:10:00,
2013-06-12 22:20:00,71.0,64.5,29.36,North,360,0.0,3.0,80,0.00,,,0.11,Weather View 32 v70,2013-06-13 02:20:00,
2013-06-12 22:27:00,71.0,64.9,29.36,North,360,0.0,3.0,81,0.00,,,0.11,Weather View 32 v70,2013-06-13 02:27:00,
2013-06-12 22:35:00,71.0,63.8,29.36,North,360,0.0,3.0,78,0.00,,,0.11,Weather View 32 v70,2013-06-13 02:35:00,
2013-06-12 22:45:00,70.0,63.2,29.36,North,360,0.0,3.0,79,0.00,,,0.11,Weather View 32 v70,2013-06-13 02:45:00,
2013-06-12 22:55:00,70.0,60.1,29.36,North,360,0.0,0.0,71,0.00,,,0.11,Weather View 32 v70,2013-06-13 02:55:00,
2013-06-12 23:00:00,70.0,61.3,29.36,North,360,0.0,0.0,74,0.00,,,0.11,Weather View 32 v70,2013-06-13 03:00:00,
2013-06-12 23:10:00,70.0,61.7,29.36,North,360,0.0,0.0,75,0.00,,,0.11,Weather View 32 v70,2013-06-13 03:10:00,
2013-06-12 23:20:00,70.0,62.8,29.35,North,360,0.0,0.0,78,0.00,,,0.11,Weather View 32 v70,2013-06-13 03:20:00,
2013-06-12 23:25:00,70.0,61.7,29.35,North,360,0.0,0.0,75,0.00,,,0.11,Weather View 32 v70,2013-06-13 03:25:00,
2013-06-12 23:35:00,69.0,58.8,29.35,North,360,0.0,1.0,70,0.00,,,0.11,Weather View 32 v70,2013-06-13 03:35:00,
2013-06-12 23:40:00,69.0,57.1,29.34,North,360,0.0,1.0,66,0.00,,,0.11,Weather View 32 v70,2013-06-13 03:40:00,
2013-06-12 23:50:00,69.0,52.6,29.34,North,360,0.0,1.0,56,0.00,,,0.11,Weather View 32 v70,2013-06-13 03:50:00,
2013-06-12 23:55:00,69.0,49.0,29.34,NE,45,0.0,5.0,49,0.00,,,0.11,Weather View 32 v70,2013-06-13 03:55:00,